createdAt,value
2022-08-25T00:01:36.607Z,30.05
2022-08-25T00:04:04.754Z,37.45
2022-08-25T00:06:32.128Z,38.28
2022-08-25T00:08:59.945Z,30.85
2022-08-25T00:11:30.228Z,41.45
2022-08-25T00:14:01.037Z,33.22
2022-08-25T00:16:28.029Z,29.42
2022-08-25T00:18:56.755Z,32.92
2022-08-25T00:21:23.904Z,29.23
2022-08-25T00:23:50.725Z,29.35
2022-08-25T00:26:17.972Z,36.15
2022-08-25T00:28:55.191Z,30.30
2022-08-25T00:31:38.368Z,27.25
2022-08-25T00:34:10.208Z,33.10
2022-08-25T00:36:37.310Z,36.10
2022-08-25T00:39:05.524Z,26.67
2022-08-25T00:41:32.337Z,30.85
2022-08-25T00:44:00.576Z,34.65
2022-08-25T00:46:32.605Z,35.17
2022-08-25T00:49:01.201Z,33.23
2022-08-25T00:51:42.976Z,34.55
2022-08-25T00:54:13.012Z,30.85
2022-08-25T00:56:39.788Z,28.05
2022-08-25T00:59:06.619Z,40.88
2022-08-25T01:01:33.536Z,31.45
2022-08-25T01:04:00.380Z,33.88
2022-08-25T01:06:28.340Z,38.42
2022-08-25T01:08:55.082Z,30.77
2022-08-25T01:11:21.931Z,34.38
2022-08-25T01:13:52.738Z,31.35
2022-08-25T01:16:19.634Z,32.40
2022-08-25T01:18:53.394Z,32.72
2022-08-25T01:21:21.856Z,25.23
2022-08-25T01:23:49.654Z,33.28
2022-08-25T01:26:17.926Z,30.52
2022-08-25T01:29:04.128Z,25.85
2022-08-25T01:31:31.094Z,29.30
2022-08-25T01:33:58.418Z,27.52
2022-08-25T01:36:25.734Z,27.77
2022-08-25T01:38:52.481Z,31.40
2022-08-25T01:41:34.945Z,27.70
2022-08-25T01:44:05.890Z,31.25
2022-08-25T01:46:35.559Z,34.42
2022-08-25T01:49:06.616Z,30.15
2022-08-25T01:51:38.058Z,34.55
2022-08-25T01:54:04.980Z,33.08
2022-08-25T01:56:31.883Z,29.67
2022-08-25T01:58:58.603Z,32.20
2022-08-25T02:01:26.398Z,26.73
2022-08-25T02:03:53.965Z,30.90
2022-08-25T02:06:28.876Z,30.77
2022-08-25T02:09:01.112Z,32.72
2022-08-25T02:11:28.179Z,35.85
2022-08-25T02:13:54.998Z,31.38
2022-08-25T02:16:25.055Z,27.45
2022-08-25T02:18:52.705Z,23.23
2022-08-25T02:21:19.454Z,29.30
2022-08-25T02:23:48.213Z,28.92
2022-08-25T02:26:19.189Z,32.83
2022-08-25T02:28:49.506Z,32.38
2022-08-25T02:31:16.558Z,29.02
2022-08-25T02:33:43.567Z,28.08
2022-08-25T02:36:10.360Z,28.63
2022-08-25T02:38:37.185Z,34.38
2022-08-25T02:41:12.927Z,31.02
2022-08-25T02:43:41.555Z,28.48
2022-08-25T02:46:08.972Z,26.08
2022-08-25T02:48:37.381Z,25.88
2022-08-25T02:51:06.444Z,33.85
2022-08-25T02:53:33.488Z,27.50
2022-08-25T02:56:00.309Z,32.28
2022-08-25T02:58:27.061Z,28.23
2022-08-25T03:00:53.854Z,25.92
2022-08-25T03:03:20.782Z,30.77
2022-08-25T03:05:47.683Z,28.13
2022-08-25T03:08:14.552Z,24.98
2022-08-25T03:10:41.301Z,34.97
2022-08-25T03:13:08.055Z,37.03
2022-08-25T03:15:37.823Z,31.02
2022-08-25T03:18:05.551Z,31.02
2022-08-25T03:20:35.682Z,29.77
2022-08-25T03:23:03.074Z,25.25
2022-08-25T03:25:48.760Z,34.88
2022-08-25T03:28:15.755Z,28.20
2022-08-25T03:30:42.962Z,27.23
2022-08-25T03:33:12.820Z,33.58
2022-08-25T03:35:40.684Z,35.35
2022-08-25T03:38:07.603Z,32.28
2022-08-25T03:40:34.347Z,33.78
2022-08-25T03:43:01.142Z,29.10
2022-08-25T03:45:27.967Z,31.00
2022-08-25T03:47:54.772Z,32.40
2022-08-25T03:50:22.191Z,30.95
2022-08-25T03:52:56.047Z,26.90
2022-08-25T03:55:23.811Z,31.45
2022-08-25T03:57:51.481Z,28.80
2022-08-25T04:00:18.447Z,31.63
2022-08-25T04:02:45.636Z,29.90
2022-08-25T04:05:12.562Z,31.17
2022-08-25T04:07:42.632Z,27.90
2022-08-25T04:10:10.193Z,28.98
2022-08-25T04:12:37.331Z,29.50
2022-08-25T04:15:05.328Z,33.20
2022-08-25T04:17:32.415Z,26.33
2022-08-25T04:19:59.752Z,31.30
2022-08-25T04:22:26.539Z,31.83
2022-08-25T04:24:56.639Z,32.45
2022-08-25T04:27:23.530Z,33.75
2022-08-25T04:29:52.837Z,35.13
2022-08-25T04:32:19.845Z,28.23
2022-08-25T04:34:46.628Z,33.25
2022-08-25T04:37:13.378Z,36.00
2022-08-25T04:39:40.315Z,31.33
2022-08-25T04:42:07.174Z,34.58
2022-08-25T04:44:33.989Z,35.22
2022-08-25T04:47:00.872Z,34.92
2022-08-25T04:49:28.790Z,28.40
2022-08-25T04:51:57.538Z,31.30
2022-08-25T04:54:24.627Z,30.63
2022-08-25T04:56:54.661Z,35.38
2022-08-25T04:59:30.317Z,36.35
2022-08-25T05:01:59.019Z,37.08
2022-08-25T05:04:31.918Z,32.28
2022-08-25T05:06:58.777Z,30.33
2022-08-25T05:09:25.785Z,28.92
2022-08-25T05:11:53.591Z,30.80
2022-08-25T05:14:23.191Z,32.75
2022-08-25T05:16:54.108Z,31.08
2022-08-25T05:19:20.859Z,30.58
2022-08-25T05:21:47.898Z,36.15
2022-08-25T05:24:14.691Z,28.70
2022-08-25T05:26:41.719Z,30.80
2022-08-25T05:29:10.830Z,30.55
2022-08-25T05:31:42.410Z,31.38
2022-08-25T05:34:12.155Z,32.92
2022-08-25T05:36:43.204Z,30.98
2022-08-25T05:39:10.817Z,32.22
2022-08-25T05:41:37.573Z,32.53
2022-08-25T05:44:04.548Z,32.72
2022-08-25T05:46:31.878Z,33.80
2022-08-25T05:48:59.139Z,31.40
2022-08-25T05:51:26.609Z,29.98
2022-08-25T05:53:53.457Z,30.05
2022-08-25T05:56:20.210Z,26.05
2022-08-25T05:58:47.056Z,31.38
2022-08-25T06:01:45.008Z,36.17
2022-08-25T06:04:12.805Z,30.67
2022-08-25T06:06:39.933Z,31.63
2022-08-25T06:09:08.776Z,29.77
2022-08-25T06:11:39.781Z,31.08
2022-08-25T06:14:07.628Z,29.75
2022-08-25T06:16:34.520Z,32.13
2022-08-25T06:19:01.350Z,35.38
2022-08-25T06:21:28.228Z,34.40
2022-08-25T06:23:55.412Z,33.47
2022-08-25T06:26:22.608Z,31.05
2022-08-25T06:28:50.844Z,31.77
2022-08-25T06:31:18.064Z,30.50
2022-08-25T06:33:45.175Z,33.45
2022-08-25T06:36:11.923Z,31.88
2022-08-25T06:38:38.689Z,34.42
2022-08-25T06:41:05.911Z,34.38
2022-08-25T06:43:33.262Z,31.88
2022-08-25T06:46:35.660Z,28.98
2022-08-25T06:49:04.912Z,30.08
2022-08-25T06:51:31.691Z,34.05
2022-08-25T06:53:58.632Z,28.98
2022-08-25T06:56:25.816Z,33.75
2022-08-25T06:58:53.457Z,32.60
2022-08-25T07:01:26.765Z,32.78
2022-08-25T07:03:57.718Z,29.25
2022-08-25T07:06:25.079Z,36.90
2022-08-25T07:08:51.838Z,34.67
2022-08-25T07:11:18.757Z,35.10
2022-08-25T07:13:45.733Z,30.58
2022-08-25T07:16:12.675Z,27.00
2022-08-25T07:18:42.731Z,28.48
2022-08-25T07:21:12.191Z,30.02
2022-08-25T07:23:39.641Z,37.25
2022-08-25T07:26:15.809Z,32.58
2022-08-25T07:29:07.015Z,32.15
2022-08-25T07:31:43.808Z,45.22
2022-08-25T07:34:34.824Z,28.50
2022-08-25T07:37:10.845Z,32.10
2022-08-25T07:39:50.795Z,36.13
2022-08-25T07:42:17.916Z,41.05
2022-08-25T07:44:54.452Z,36.10
2022-08-25T07:47:28.750Z,34.50
2022-08-25T07:50:05.716Z,37.13
2022-08-25T07:52:40.493Z,36.78
2022-08-25T07:55:11.111Z,37.50
2022-08-25T07:57:57.331Z,35.45
2022-08-25T08:00:36.000Z,36.75
2022-08-25T08:03:29.189Z,30.55
2022-08-25T08:06:14.661Z,36.67
2022-08-25T08:08:50.491Z,33.20
2022-08-25T08:11:32.298Z,28.73
2022-08-25T08:14:02.531Z,29.60
2022-08-25T08:16:45.492Z,25.42
2022-08-25T08:21:54.320Z,22.35
2022-08-25T08:24:44.675Z,23.42
2022-08-25T08:27:19.264Z,31.67
2022-08-25T08:29:54.919Z,29.50
2022-08-25T08:32:31.406Z,36.25
2022-08-25T08:35:13.936Z,30.40
2022-08-25T08:37:56.629Z,25.58
2022-08-25T08:40:38.232Z,28.52
2022-08-25T08:43:18.461Z,29.65
2022-08-25T08:45:54.065Z,27.27
2022-08-25T08:48:56.696Z,28.33
2022-08-25T08:51:32.891Z,30.92
2022-08-25T08:54:21.462Z,25.50
2022-08-25T08:56:57.939Z,32.40
2022-08-25T08:59:30.973Z,28.25
2022-08-25T09:02:01.996Z,30.00
2022-08-25T09:04:40.915Z,27.80
2022-08-25T09:07:20.730Z,28.33
2022-08-25T09:09:53.399Z,28.02
2022-08-25T09:16:00.224Z,28.08
2022-08-25T09:21:32.892Z,33.10
2022-08-25T09:24:24.627Z,29.02
2022-08-25T09:27:30.109Z,29.25
2022-08-25T09:30:01.328Z,25.17
2022-08-25T09:32:52.786Z,22.65
2022-08-25T09:35:22.921Z,27.20
2022-08-25T09:38:00.376Z,21.95
2022-08-25T09:40:30.731Z,28.05
2022-08-25T09:43:00.707Z,22.33
2022-08-25T09:45:42.324Z,22.80
2022-08-25T09:48:40.776Z,21.70
2022-08-25T09:51:29.327Z,26.52
2022-08-25T09:54:33.916Z,25.70
2022-08-25T09:57:10.071Z,30.30
2022-08-25T09:59:37.236Z,26.63
2022-08-25T10:02:15.805Z,24.00
2022-08-25T10:04:45.584Z,21.52
2022-08-25T10:07:29.178Z,24.67
2022-08-25T10:09:59.696Z,26.75
2022-08-25T10:12:31.251Z,24.45
2022-08-25T10:15:06.559Z,27.77
2022-08-25T10:17:42.160Z,23.83
2022-08-25T10:20:15.351Z,19.70
2022-08-25T10:22:45.807Z,21.83
2022-08-25T10:25:34.047Z,23.08
2022-08-25T10:29:03.948Z,28.67
2022-08-25T10:31:50.095Z,28.17
2022-08-25T10:34:23.815Z,22.80
2022-08-25T10:36:56.100Z,22.70
2022-08-25T10:39:37.053Z,22.27
2022-08-25T10:42:28.632Z,20.80
2022-08-25T10:45:22.895Z,21.52
2022-08-25T10:48:04.494Z,19.17
2022-08-25T10:50:49.062Z,23.08
2022-08-25T10:53:43.172Z,24.83
2022-08-25T10:56:21.849Z,21.02
2022-08-25T10:59:02.713Z,16.85
2022-08-25T11:01:55.009Z,20.10
2022-08-25T11:05:07.924Z,27.70
2022-08-25T11:07:40.400Z,19.27
2022-08-25T11:10:33.600Z,19.77
2022-08-25T11:13:11.399Z,24.67
2022-08-25T11:16:06.528Z,18.42
2022-08-25T11:18:42.412Z,19.02
2022-08-25T11:21:38.358Z,19.13
2022-08-25T11:24:42.753Z,26.80
2022-08-25T11:30:13.505Z,17.10
2022-08-25T11:32:40.571Z,24.00
2022-08-25T11:35:10.005Z,20.23
2022-08-25T11:37:46.706Z,21.97
2022-08-25T11:40:41.671Z,25.52
2022-08-25T11:43:42.964Z,18.23
2022-08-25T11:46:47.369Z,19.13
2022-08-25T11:49:40.330Z,14.93
2022-08-25T11:52:30.745Z,17.63
2022-08-25T11:55:05.893Z,15.00
2022-08-25T11:57:35.445Z,14.43
2022-08-25T12:00:05.944Z,17.52
2022-08-25T12:02:49.094Z,14.35
2022-08-25T12:05:22.363Z,16.05
2022-08-25T12:08:30.702Z,17.67
2022-08-25T12:11:10.473Z,16.63
2022-08-25T12:13:52.521Z,14.60
2022-08-25T12:16:38.994Z,14.68
2022-08-25T12:19:37.977Z,19.77
2022-08-25T12:22:09.242Z,14.43
2022-08-25T12:24:47.364Z,15.65
2022-08-25T12:27:35.426Z,12.35
2022-08-25T12:30:12.238Z,20.67
2022-08-25T12:33:24.452Z,14.73
2022-08-25T12:36:03.788Z,16.25
2022-08-25T12:38:35.074Z,11.18
2022-08-25T12:41:09.173Z,12.25
2022-08-25T12:43:39.072Z,11.45
2022-08-25T12:46:26.478Z,14.68
2022-08-25T12:49:15.915Z,14.70
2022-08-25T12:51:48.685Z,12.55
2022-08-25T12:54:22.845Z,15.68
2022-08-25T12:57:02.885Z,22.05
2022-08-25T12:59:42.949Z,17.63
2022-08-25T13:02:31.351Z,12.45
2022-08-25T13:05:13.991Z,14.93
2022-08-25T13:07:55.691Z,14.52
2022-08-25T13:10:49.667Z,16.23
2022-08-25T13:13:43.147Z,11.52
2022-08-25T13:16:29.276Z,12.75
2022-08-25T13:19:05.507Z,15.15
2022-08-25T13:21:44.625Z,12.85
2022-08-25T13:24:25.575Z,16.90
2022-08-25T13:27:06.926Z,9.68
2022-08-25T13:29:37.491Z,9.82
2022-08-25T13:32:14.388Z,9.07
2022-08-25T13:34:57.125Z,11.90
2022-08-25T13:40:36.583Z,10.93
2022-08-25T13:43:12.152Z,15.27
2022-08-25T13:45:51.878Z,14.63
2022-08-25T13:48:49.683Z,8.98
2022-08-25T13:51:24.096Z,13.00
2022-08-25T13:54:22.786Z,11.05
2022-08-25T13:56:59.066Z,10.02
2022-08-25T13:59:40.307Z,11.18
2022-08-25T14:02:15.170Z,10.88
2022-08-25T14:04:54.482Z,17.63
2022-08-25T14:07:23.003Z,12.10
2022-08-25T14:09:55.776Z,22.27
2022-08-25T14:12:44.827Z,11.43
2022-08-25T14:15:20.170Z,11.27
2022-08-25T14:18:02.228Z,16.65
2022-08-25T14:20:38.962Z,10.75
2022-08-25T14:23:22.237Z,13.02
2022-08-25T14:25:58.729Z,13.25
2022-08-25T14:28:29.092Z,12.57
2022-08-25T14:31:11.506Z,7.43
2022-08-25T14:33:49.921Z,12.25
2022-08-25T14:36:28.370Z,12.65
2022-08-25T14:39:00.737Z,10.55
2022-08-25T14:41:32.801Z,11.82
2022-08-25T14:44:02.911Z,10.90
2022-08-25T14:46:39.948Z,7.47
2022-08-25T14:49:12.520Z,13.73
2022-08-25T14:51:47.479Z,14.65
2022-08-25T14:54:25.750Z,14.05
2022-08-25T14:56:56.693Z,11.93
2022-08-25T14:59:26.067Z,12.07
2022-08-25T15:01:57.679Z,12.82
2022-08-25T15:04:30.369Z,9.85
2022-08-25T15:07:26.732Z,8.90
2022-08-25T15:09:56.304Z,8.02
2022-08-25T15:12:46.130Z,9.85
2022-08-25T15:15:18.699Z,9.00
2022-08-25T15:17:51.772Z,10.23
2022-08-25T15:20:26.904Z,10.05
2022-08-25T15:23:02.623Z,8.15
2022-08-25T15:25:35.665Z,12.30
2022-08-25T15:30:45.063Z,12.55
2022-08-25T15:33:13.360Z,10.70
2022-08-25T15:35:43.442Z,8.57
2022-08-25T15:38:14.733Z,13.02
2022-08-25T15:40:44.366Z,9.75
2022-08-25T15:43:13.141Z,15.32
2022-08-25T15:45:42.753Z,9.63
2022-08-25T15:48:10.009Z,6.50
2022-08-25T15:50:42.212Z,6.90
2022-08-25T15:53:11.595Z,7.93
2022-08-25T15:55:44.384Z,9.95
2022-08-25T15:58:16.583Z,7.68
2022-08-25T16:00:56.595Z,15.60
2022-08-25T16:03:30.194Z,11.32
2022-08-25T16:06:01.445Z,9.75
2022-08-25T16:08:40.220Z,6.78
2022-08-25T16:11:29.149Z,12.02
2022-08-25T16:14:06.015Z,11.98
2022-08-25T16:16:36.254Z,10.07
2022-08-25T16:19:08.498Z,8.93
2022-08-25T16:21:42.237Z,6.63
2022-08-25T16:24:17.685Z,12.25
2022-08-25T16:26:57.575Z,10.18
2022-08-25T16:29:35.875Z,8.65
2022-08-25T16:32:06.838Z,14.07
2022-08-25T16:34:36.668Z,10.65
2022-08-25T16:37:11.916Z,12.40
2022-08-25T16:39:46.859Z,9.18
2022-08-25T16:42:18.713Z,8.65
2022-08-25T16:44:58.075Z,8.68
2022-08-25T16:47:27.989Z,10.93
2022-08-25T16:49:56.802Z,8.35
2022-08-25T16:52:49.939Z,7.22
2022-08-25T16:55:24.281Z,9.63
2022-08-25T16:57:55.335Z,8.48
2022-08-25T17:00:24.975Z,8.98
2022-08-25T17:03:07.979Z,12.15
2022-08-25T17:08:29.095Z,10.65
2022-08-25T17:11:30.355Z,9.98
2022-08-25T17:13:59.332Z,9.25
2022-08-25T17:16:30.134Z,9.85
2022-08-25T17:18:59.689Z,11.20
2022-08-25T17:21:28.095Z,11.20
2022-08-25T17:23:55.824Z,10.68
2022-08-25T17:26:27.726Z,12.23
2022-08-25T17:29:01.687Z,16.25
2022-08-25T17:31:28.798Z,9.02
2022-08-25T17:33:59.946Z,7.95
2022-08-25T17:36:29.820Z,9.13
2022-08-25T17:38:57.177Z,9.40
2022-08-25T17:41:24.155Z,12.00
2022-08-25T17:43:51.084Z,9.88
2022-08-25T17:46:21.663Z,11.45
2022-08-25T17:48:54.891Z,8.85
2022-08-25T17:51:21.917Z,13.95
2022-08-25T17:53:53.264Z,10.07
2022-08-25T17:56:27.628Z,16.17
2022-08-25T17:59:00.206Z,11.77
2022-08-25T18:01:29.730Z,12.45
2022-08-25T18:03:59.450Z,9.70
2022-08-25T18:06:34.329Z,7.60
2022-08-25T18:11:55.092Z,11.80
2022-08-25T18:14:35.156Z,11.10
2022-08-25T18:17:05.790Z,13.10
2022-08-25T18:19:38.630Z,10.50
2022-08-25T18:22:10.537Z,10.55
2022-08-25T18:24:42.685Z,14.38
2022-08-25T18:27:12.492Z,15.83
2022-08-25T18:29:47.882Z,9.88
2022-08-25T18:32:21.113Z,13.35
2022-08-25T18:34:57.004Z,13.77
2022-08-25T18:37:48.633Z,15.00
2022-08-25T18:40:29.511Z,12.95
2022-08-25T18:43:02.220Z,7.93
2022-08-25T18:45:34.157Z,11.02
2022-08-25T18:48:03.871Z,12.77
2022-08-25T18:50:35.791Z,10.83
2022-08-25T18:53:06.277Z,13.93
2022-08-25T18:55:36.409Z,10.93
2022-08-25T18:58:17.451Z,10.10
2022-08-25T19:00:56.270Z,13.05
2022-08-25T19:03:25.988Z,10.45
2022-08-25T19:05:57.259Z,11.35
2022-08-25T19:08:24.755Z,13.75
2022-08-25T19:10:52.903Z,14.10
2022-08-25T19:13:26.785Z,16.20
2022-08-25T19:15:56.036Z,14.02
2022-08-25T19:18:29.151Z,10.13
2022-08-25T19:21:06.958Z,13.20
2022-08-25T19:23:38.083Z,11.13
2022-08-25T19:26:17.088Z,13.68
2022-08-25T19:28:49.271Z,10.60
2022-08-25T19:31:26.011Z,16.73
2022-08-25T19:33:57.961Z,13.55
2022-08-25T19:36:33.958Z,12.63
2022-08-25T19:39:01.537Z,10.63
2022-08-25T19:41:33.392Z,13.93
2022-08-25T19:44:00.465Z,12.43
2022-08-25T19:46:36.281Z,12.20
2022-08-25T19:49:11.977Z,14.57
2022-08-25T19:51:40.997Z,11.77
2022-08-25T19:54:12.005Z,15.55
2022-08-25T19:56:43.492Z,11.75
2022-08-25T19:59:22.418Z,15.68
2022-08-25T20:01:54.596Z,17.70
2022-08-25T20:04:25.525Z,19.00
2022-08-25T20:06:59.745Z,17.65
2022-08-25T20:09:38.935Z,16.88
2022-08-25T20:14:46.978Z,11.13
2022-08-25T20:17:24.652Z,11.55
2022-08-25T20:20:05.200Z,14.68
2022-08-25T20:22:37.614Z,13.45
2022-08-25T20:25:17.606Z,12.90
2022-08-25T20:27:52.801Z,14.10
2022-08-25T20:30:29.644Z,11.52
2022-08-25T20:33:05.752Z,14.45
2022-08-25T20:35:38.716Z,15.95
2022-08-25T20:38:08.877Z,14.70
2022-08-25T20:40:37.427Z,12.55
2022-08-25T20:43:04.502Z,12.18
2022-08-25T20:45:33.860Z,12.40
2022-08-25T20:48:07.791Z,13.85
2022-08-25T20:50:44.666Z,12.65
2022-08-25T20:53:20.689Z,11.60
2022-08-25T20:55:55.260Z,16.30
2022-08-25T20:58:28.614Z,11.73
2022-08-25T21:00:59.042Z,15.35
2022-08-25T21:03:29.768Z,16.27
2022-08-25T21:06:01.491Z,11.88
2022-08-25T21:08:38.814Z,12.70
2022-08-25T21:11:16.249Z,15.40
2022-08-25T21:13:51.457Z,15.07
2022-08-25T21:16:24.865Z,14.00
2022-08-25T21:18:52.034Z,14.13
2022-08-25T21:21:18.946Z,13.60
2022-08-25T21:23:50.630Z,12.73
2022-08-25T21:26:20.514Z,13.23
2022-08-25T21:28:53.368Z,10.35
2022-08-25T21:33:56.294Z,13.45
2022-08-25T21:36:31.683Z,13.68
2022-08-25T21:39:13.501Z,14.65
2022-08-25T21:41:45.084Z,12.93
2022-08-25T21:44:19.009Z,11.77
2022-08-25T21:47:05.886Z,12.65
2022-08-25T21:49:38.557Z,10.80
2022-08-25T21:52:13.650Z,13.18
2022-08-25T21:54:45.089Z,10.38
2022-08-25T21:57:16.138Z,11.52
2022-08-25T21:59:57.778Z,16.05
2022-08-25T22:02:30.600Z,12.50
2022-08-25T22:04:59.846Z,11.20
2022-08-25T22:07:34.725Z,15.23
2022-08-25T22:10:04.916Z,12.20
2022-08-25T22:12:34.484Z,13.38
2022-08-25T22:15:09.494Z,12.20
2022-08-25T22:17:45.554Z,11.52
2022-08-25T22:20:24.389Z,11.52
2022-08-25T22:23:00.532Z,10.32
2022-08-25T22:25:28.823Z,8.67
2022-08-25T22:28:05.356Z,14.13
2022-08-25T22:30:42.579Z,13.82
2022-08-25T22:33:18.822Z,11.27
2022-08-25T22:35:56.084Z,14.85
2022-08-25T22:38:38.650Z,11.10
2022-08-25T22:41:11.639Z,16.95
2022-08-25T22:43:54.573Z,11.93
2022-08-25T22:46:27.908Z,16.65
2022-08-25T22:48:55.474Z,12.50
2022-08-25T22:51:28.377Z,11.73
2022-08-25T22:56:34.752Z,10.48
2022-08-25T22:59:09.677Z,10.65
2022-08-25T23:01:39.620Z,9.32
2022-08-25T23:04:11.308Z,11.05
2022-08-25T23:06:44.254Z,12.98
2022-08-25T23:11:53.513Z,12.52
2022-08-25T23:14:26.553Z,11.20
2022-08-25T23:16:59.710Z,10.48
2022-08-25T23:19:33.223Z,11.00
2022-08-25T23:22:10.417Z,14.90
2022-08-25T23:24:47.238Z,10.63
2022-08-25T23:27:23.538Z,11.88
2022-08-25T23:29:50.959Z,10.70
2022-08-25T23:32:28.049Z,9.52
2022-08-25T23:34:57.993Z,11.63
2022-08-25T23:37:25.650Z,7.78
2022-08-25T23:39:55.776Z,9.82
2022-08-25T23:42:30.368Z,9.75
2022-08-25T23:44:58.627Z,10.13
2022-08-25T23:47:28.078Z,8.35
2022-08-25T23:50:01.711Z,12.63
2022-08-25T23:52:29.332Z,9.48
2022-08-25T23:54:57.967Z,7.82
2022-08-25T23:57:30.800Z,13.05
